Flight Track Log - Related Links

Times and Time Zones

All times are in EDT time to prevent confusion due to time zone crossing. See the N125GH flight status page for this flight to view local times or setup timezone preferences in your user account.

Time Position Orientation Groundspeed Altitude Reporting Facility
EDT Latitude Longitude Course Direction KTS MPH feet Rate Location/Type
Mon 08:08:42 PM 29.6289 -95.2633 146° Southeast 177 204 800  Level Houston Center
Mon 08:09:37 PM 29.5836 -95.2281 146° Southeast 221 254 3,000 2,379 Climbing Houston Center
Mon 08:10:38 PM 29.5281 -95.1725 139° Southeast 287 330 5,400 2,612 Climbing Houston Center
Mon 08:12:04 PM 29.5492 -95.0589 78° East 280 322 9,400 2,230 Climbing Houston Center
Mon 08:13:06 PM 29.5728 -94.9653 74° East 311 358 10,900 1,805 Climbing Houston Center
Mon 08:14:07 PM 29.5997 -94.8531 75° East 363 418 13,100 2,390 Climbing Houston Center
Mon 08:15:09 PM 29.6333 -94.7114 75° East 382 440 15,800 2,274 Climbing Houston Center
Mon 08:16:11 PM 29.6625 -94.5900 75° East 392 451 17,800 1,839 Climbing Houston Center
Mon 08:17:13 PM 29.6933 -94.4625 74° East 409 471 19,600 1,854 Climbing Houston Center
Mon 08:18:14 PM 29.7178 -94.3272 78° East 426 490 21,600 1,707 Climbing Houston Center
Mon 08:19:16 PM 29.7144 -94.1844 92° East 443 510 23,100 1,452 Climbing Houston Center
Mon 08:20:18 PM 29.7119 -94.0289 91° East 458 527 24,600 1,452 Climbing Houston Center
Mon 08:21:20 PM 29.7081 -93.8767 92° East 472 543 26,100 1,500 Climbing Houston Center
Mon 08:22:22 PM 29.7031 -93.7172 92° East 496 571 27,700 1,512 Climbing Houston Center
Mon 08:23:23 PM 29.7161 -93.5258 85° East 509 586 29,200 1,268 Climbing Houston Center
Mon 08:24:25 PM 29.7500 -93.3675 76° East 516 594 30,300 1,065 Climbing Houston Center
Mon 08:25:27 PM 29.7861 -93.2039 76° East 530 610 31,400 1,065 Climbing Houston Center
Mon 08:26:29 PM 29.8203 -93.0397 76° East 534 615 32,500 1,073 Climbing Houston Center
Mon 08:27:30 PM 29.8558 -92.8739 76° East 538 619 33,600 1,171 Climbing Houston Center
Mon 08:28:32 PM 29.8981 -92.6733 76° East 539 620 34,900 1,161 Climbing Houston Center
Mon 08:29:34 PM 29.9331 -92.5075 76° East 538 619 36,000 1,065 Climbing Houston Center
Mon 08:30:36 PM 29.9667 -92.3442 77° East 530 610 37,100 1,073 Climbing Houston Center
Mon 08:31:37 PM 30.0008 -92.1794 76° East 530 610 38,200 927 Climbing Houston Center
Mon 08:32:39 PM 30.0336 -92.0181 77° East 525 604 39,000 677 Climbing Houston Center
Mon 08:33:41 PM 30.0672 -91.8544 77° East 523 602 39,600 634 Climbing Houston Center
Mon 08:34:42 PM 30.1061 -91.6672 76° East 524 603 40,300 585 Climbing Houston Center
Mon 08:35:44 PM 30.1392 -91.5019 77° East 529 609 40,800 339 Climbing Houston Center
Mon 08:36:46 PM 30.1711 -91.3369 77° East 528 608 41,000 98 Climbing Houston Center
Mon 08:37:47 PM 30.2053 -91.1719 76° East 529 609 41,000  Level Houston Center
Mon 08:38:49 PM 30.2369 -91.0069 77° East 527 606 41,000  Level Houston Center
Mon 08:39:51 PM 30.2694 -90.8411 77° East 530 610 41,000  Level Houston Center
Mon 08:40:52 PM 30.3075 -90.6422 77° East 528 608 41,000  Level Houston Center
Mon 08:41:54 PM 30.3392 -90.4786 77° East 523 602 41,000  Level Houston Center
Mon 08:42:55 PM 30.3714 -90.3161 77° East 519 597 41,000  Level Houston Center
Mon 08:43:57 PM 30.4019 -90.1528 78° East 518 596 41,000  Level Houston Center
Mon 08:44:59 PM 30.4325 -89.9900 78° East 514 592 41,000  Level Houston Center
Mon 08:46:00 PM 30.4675 -89.8244 76° East 520 598 41,000  Level Houston Center
Mon 08:47:02 PM 30.4956 -89.6572 79° East 517 595 41,000  Level Houston Center
Mon 08:48:03 PM 30.5242 -89.4942 78° East 514 592 41,000  Level Houston Center
Mon 08:49:05 PM 30.5525 -89.3347 78° East 507 583 41,000  Level Houston Center
Mon 08:50:07 PM 30.5794 -89.1750 79° East 505 581 41,000  Level Houston Center
Mon 08:51:08 PM 30.6089 -89.0161 78° East 505 581 41,000  Level Houston Center
Mon 08:52:10 PM 30.6372 -88.8489 79° East 504 580 41,000  Level Houston Center
Mon 08:53:12 PM 30.6656 -88.6900 78° East 505 581 41,000  Level Houston Center
Mon 08:54:13 PM 30.7331 -88.5194 65° Northeast 505 581 41,000  Level Houston Center
Mon 08:55:15 PM 30.8186 -88.3931 52° Northeast 501 577 41,000  Level Houston Center
Mon 08:56:16 PM 30.9069 -88.2672 51° Northeast 504 580 41,000  Level Houston Center
Mon 08:57:18 PM 30.9944 -88.1389 51° Northeast 507 583 41,000  Level Houston Center
Mon 08:58:20 PM 31.0853 -88.0108 50° Northeast 510 587 41,000  Level Houston Center
Mon 08:59:22 PM 31.1889 -87.8583 52° Northeast 500 575 41,000  Level Houston Center
Mon 09:00:23 PM 31.2753 -87.7356 51° Northeast 506 582 41,000  Level Houston Center
Mon 09:01:25 PM 31.3642 -87.6069 51° Northeast 510 587 41,000  Level Houston Center
Mon 09:02:26 PM 31.4531 -87.4772 51° Northeast 511 588 41,000  Level Houston Center
Mon 09:03:28 PM 31.5425 -87.3453 51° Northeast 516 594 41,000  Level Houston Center
Mon 09:04:30 PM 31.6294 -87.2106 53° Northeast 520 598 41,000  Level Houston Center
Mon 09:05:04 PM 31.6936 -87.1189 51° Northeast 509 586 41,000  Level Atlanta Center
Mon 09:06:04 PM 31.7803 -86.9853 53° Northeast 504 580 41,000  Level Atlanta Center
Mon 09:07:04 PM 31.8711 -86.8536 51° Northeast 504 580 41,000  Level Atlanta Center
Mon 09:08:04 PM 31.9597 -86.7194 52° Northeast 510 587 41,000  Level Atlanta Center
Mon 09:09:04 PM 32.0436 -86.5994 50° Northeast 516 594 41,000  Level Atlanta Center
Mon 09:10:04 PM 32.1361 -86.4647 51° Northeast 516 594 41,000  Level Atlanta Center
Mon 09:11:04 PM 32.2114 -86.3414 54° Northeast 516 594 41,000  Level Atlanta Center
Mon 09:12:04 PM 32.2875 -86.1814 61° Northeast 516 594 41,000  Level Atlanta Center
Mon 09:13:04 PM 32.3672 -86.0331 58° Northeast 516 594 41,000  Level Atlanta Center
Mon 09:14:04 PM 32.4444 -85.8872 58° Northeast 516 594 41,000  Level Atlanta Center
Mon 09:15:04 PM 32.5219 -85.7361 59° Northeast 521 600 41,000  Level Atlanta Center
Mon 09:16:04 PM 32.5969 -85.5872 59° Northeast 521 600 41,000  Level Atlanta Center
Mon 09:17:04 PM 32.6717 -85.4381 59° Northeast 521 600 41,000  Level Atlanta Center
Mon 09:18:04 PM 32.7464 -85.2886 59° Northeast 521 600 41,000  Level Atlanta Center
Mon 09:19:04 PM 32.8231 -85.1264 61° Northeast 521 600 41,000  Level Atlanta Center
Mon 09:20:04 PM 32.8908 -84.9986 58° Northeast 521 600 41,000  Level Atlanta Center
Mon 09:21:04 PM 32.9692 -84.8461 58° Northeast 521 600 41,000  Level Atlanta Center
Mon 09:22:04 PM 33.0431 -84.6906 60° Northeast 531 611 41,000  Level Atlanta Center
Mon 09:23:04 PM 33.1150 -84.5397 60° Northeast 526 605 41,000  Level Atlanta Center
Mon 09:24:04 PM 33.1906 -84.3864 59° Northeast 526 605 41,000  Level Atlanta Center
Mon 09:25:04 PM 33.2661 -84.2325 60° Northeast 526 605 41,000  Level Atlanta Center
Mon 09:26:04 PM 33.3392 -84.0811 60° Northeast 526 605 41,000  Level Atlanta Center
Mon 09:27:04 PM 33.4164 -83.9244 59° Northeast 526 605 41,000  Level Atlanta Center
Mon 09:28:04 PM 33.4914 -83.7697 60° Northeast 531 611 41,000  Level Atlanta Center
Mon 09:29:04 PM 33.5722 -83.6025 60° Northeast 531 611 41,000  Level Atlanta Center
Mon 09:30:04 PM 33.6447 -83.4450 61° Northeast 531 611 41,000  Level Atlanta Center
Mon 09:31:04 PM 33.7211 -83.2894 59° Northeast 531 611 41,000  Level Atlanta Center
Mon 09:32:04 PM 33.7908 -83.1389 61° Northeast 531 611 41,000  Level Atlanta Center
Mon 09:33:04 PM 33.8628 -82.9906 60° Northeast 524 603 41,000  Level Atlanta Center
Mon 09:34:04 PM 33.9367 -82.8369 60° Northeast 524 603 41,000  Level Atlanta Center
Mon 09:35:04 PM 34.0081 -82.6831 61° Northeast 524 603 41,000  Level Atlanta Center
Mon 09:36:04 PM 34.0792 -82.5289 61° Northeast 524 603 41,000  Level Atlanta Center
Mon 09:37:04 PM 34.1483 -82.3797 61° Northeast 518 596 41,000  Level Atlanta Center
Mon 09:38:04 PM 34.2233 -82.2275 59° Northeast 518 596 41,000  Level Atlanta Center
Mon 09:39:04 PM 34.3108 -82.0847 53° Northeast 524 603 41,000  Level Atlanta Center
Mon 09:40:04 PM 34.4006 -81.9442 52° Northeast 524 603 41,000  Level Atlanta Center
Mon 09:41:04 PM 34.4897 -81.7983 53° Northeast 524 603 41,000  Level Atlanta Center
Mon 09:42:04 PM 34.5789 -81.6572 52° Northeast 529 609 41,000  Level Atlanta Center
Mon 09:43:04 PM 34.6614 -81.5083 56° Northeast 537 618 41,000  Level Atlanta Center
Mon 09:44:04 PM 34.7503 -81.3717 52° Northeast 537 618 41,000  Level Atlanta Center
Mon 09:45:04 PM 34.8247 -81.2453 54° Northeast 525 604 41,000  Level Atlanta Center
Mon 09:46:04 PM 34.9111 -81.1056 53° Northeast 520 598 41,000  Level Atlanta Center
Mon 09:47:04 PM 34.9975 -80.9606 54° Northeast 520 598 41,000  Level Atlanta Center
Mon 09:49:07 PM 35.1789 -80.6539 54° Northeast 507 583 41,000  Level Washington Center
Mon 09:50:08 PM 35.2639 -80.5117 54° Northeast 512 589 41,000  Level Washington Center
Mon 09:51:08 PM 35.3489 -80.3719 53° Northeast 512 589 41,000  Level Washington Center
Mon 09:52:07 PM 35.4319 -80.2289 55° Northeast 512 589 41,000  Level Washington Center
Mon 09:53:07 PM 35.5056 -80.1031 54° Northeast 512 589 41,000  Level Washington Center
Mon 09:54:08 PM 35.5989 -79.9500 53° Northeast 507 583 41,000  Level Washington Center
Mon 09:55:09 PM 35.6833 -79.8036 55° Northeast 507 583 41,000  Level Washington Center
Mon 09:56:07 PM 35.7586 -79.6772 54° Northeast 513 590 41,000  Level Washington Center
Mon 09:57:07 PM 35.8494 -79.5203 54° Northeast 507 583 41,000  Level Washington Center
Mon 09:58:09 PM 35.9333 -79.3808 53° Northeast 501 577 41,000  Level Washington Center
Mon 09:59:09 PM 36.0172 -79.2333 55° Northeast 506 582 41,000  Level Washington Center
Mon 10:00:08 PM 36.1008 -79.0908 54° Northeast 506 582 41,000  Level Washington Center
Mon 10:01:09 PM 36.1822 -78.9425 56° Northeast 506 582 41,000  Level Washington Center
Mon 10:02:08 PM 36.2633 -78.7992 55° Northeast 506 582 41,000  Level Washington Center
Mon 10:03:08 PM 36.3464 -78.6556 54° Northeast 506 582 41,000  Level Washington Center
Mon 10:04:09 PM 36.4294 -78.5092 55° Northeast 506 582 41,000  Level Washington Center
Mon 10:05:07 PM 36.5078 -78.3672 55° Northeast 506 582 41,000  Level Washington Center
Mon 10:06:07 PM 36.5883 -78.2203 56° Northeast 506 582 41,000  Level Washington Center
Mon 10:07:09 PM 36.6578 -78.0931 56° Northeast 501 577 41,000  Level Washington Center
Mon 10:08:07 PM 36.7339 -77.9478 57° Northeast 501 577 41,000  Level Washington Center
Mon 10:09:07 PM 36.8158 -77.8022 55° Northeast 501 577 41,000  Level Washington Center
Mon 10:10:08 PM 36.8956 -77.6592 55° Northeast 501 577 41,000  Level Washington Center
Mon 10:11:09 PM 36.9753 -77.5106 56° Northeast 506 582 41,000  Level Washington Center
Mon 10:12:09 PM 37.0731 -77.3828 46° Northeast 506 582 41,000  Level Washington Center
Mon 10:13:07 PM 37.1875 -77.2761 37° Northeast 496 571 41,000  Level Washington Center
Mon 10:14:08 PM 37.3122 -77.1533 38° Northeast 496 571 41,000  Level Washington Center
Mon 10:15:08 PM 37.4156 -77.0536 37° Northeast 527 606 41,000  Level Washington Center
Mon 10:16:09 PM 37.5378 -76.9458 35° Northeast 529 609 41,000  Level Washington Center
Mon 10:17:09 PM 37.6475 -76.8378 38° Northeast 524 603 41,000  Level Washington Center
Mon 10:18:09 PM 37.7592 -76.7292 38° Northeast 508 585 41,000  Level Washington Center
Mon 10:19:09 PM 37.8706 -76.6178 38° Northeast 508 585 41,000  Level Washington Center
Mon 10:20:09 PM 37.9861 -76.5086 37° Northeast 508 585 41,000  Level Washington Center
Mon 10:21:07 PM 38.0953 -76.3992 38° Northeast 508 585 41,000  Level Washington Center
Mon 10:22:07 PM 38.2086 -76.2919 37° Northeast 508 585 41,000  Level Washington Center
Mon 10:23:08 PM 38.3178 -76.1844 38° Northeast 508 585 41,000  Level Washington Center
Mon 10:24:08 PM 38.4308 -76.0714 38° Northeast 508 585 41,000  Level Washington Center
Mon 10:25:09 PM 38.5436 -75.9606 38° Northeast 508 585 41,000  Level Washington Center
Mon 10:26:07 PM 38.6669 -75.8417 37° Northeast 508 585 41,000  Level Washington Center
Mon 10:27:07 PM 38.7778 -75.7300 38° Northeast 508 585 41,000  Level Washington Center
Mon 10:28:07 PM 38.8883 -75.6208 38° Northeast 508 585 41,000  Level Washington Center
Mon 10:29:08 PM 39.0008 -75.5089 38° Northeast 508 585 41,000  Level Washington Center
Mon 10:30:07 PM 39.1111 -75.3936 39° Northeast 508 585 41,000  Level Washington Center
Mon 10:31:09 PM 39.2131 -75.2861 39° Northeast 513 590 41,000 -50 Level Washington Center
Mon 10:32:07 PM 39.3211 -75.1731 39° Northeast 508 585 40,900  Descending Washington Center
Mon 10:34:03 PM 39.5478 -74.9439 38° Northeast 494 568 41,000 34 Climbing New York Center
Mon 10:35:04 PM 39.6583 -74.8236 40° Northeast 500 575 41,000  Level New York Center
Mon 10:36:04 PM 39.7728 -74.7089 38° Northeast 514 592 41,000  Level New York Center
Mon 10:37:05 PM 39.8850 -74.5933 38° Northeast 514 592 41,000  Level New York Center
Mon 10:38:04 PM 39.9861 -74.4878 39° Northeast 514 592 41,000  Level New York Center
Mon 10:40:32 PM 40.2739 -74.1833 39° Northeast 514 592 41,000  Level Boston Center
Mon 10:41:32 PM 40.3819 -74.0636 40° Northeast 514 592 41,000  Level Boston Center
Mon 10:42:32 PM 40.4958 -73.9547 36° Northeast 514 592 41,000  Level Boston Center
Mon 10:43:32 PM 40.6058 -73.8397 38° Northeast 509 586 41,000  Level Boston Center
Mon 10:44:32 PM 40.7156 -73.7189 40° Northeast 504 580 41,000  Level Boston Center
Mon 10:45:32 PM 40.8231 -73.5892 42° Northeast 510 587 41,000  Level Boston Center
Mon 10:46:32 PM 40.9347 -73.4675 39° Northeast 516 594 41,000  Level Boston Center
Mon 10:47:32 PM 41.0339 -73.3344 45° Northeast 516 594 41,000  Level Boston Center
Mon 10:48:32 PM 41.1142 -73.2006 51° Northeast 505 581 41,000  Level Boston Center
Mon 10:49:32 PM 41.2067 -73.0525 50° Northeast 511 588 41,000  Level Boston Center
Mon 10:50:32 PM 41.3158 -72.8878 49° Northeast 527 606 41,000  Level Boston Center
Mon 10:51:32 PM 41.4058 -72.7417 51° Northeast 527 606 41,000  Level Boston Center
Mon 10:52:32 PM 41.4958 -72.5925 51° Northeast 522 601 41,000  Level Boston Center
Mon 10:53:32 PM 41.5750 -72.4622 51° Northeast 516 594 41,000  Level Boston Center
Mon 10:54:32 PM 41.6667 -72.3178 50° Northeast 510 587 41,000  Level Boston Center
Mon 10:55:32 PM 41.7581 -72.1672 51° Northeast 510 587 41,000  Level Boston Center
Mon 10:56:32 PM 41.8514 -72.0192 50° Northeast 515 593 41,000  Level Boston Center
Mon 10:57:32 PM 41.9406 -71.8708 51° Northeast 515 593 41,000  Level Boston Center
Mon 10:58:32 PM 42.0314 -71.7217 51° Northeast 515 593 41,000  Level Boston Center
Mon 10:59:32 PM 42.1242 -71.5694 51° Northeast 515 593 41,000  Level Boston Center
Mon 11:00:32 PM 42.2186 -71.4225 49° Northeast 515 593 41,000 -50 Level Boston Center
Mon 11:01:32 PM 42.3089 -71.2750 50° Northeast 515 593 40,900  Descending Boston Center
Mon 11:02:32 PM 42.4011 -71.1186 51° Northeast 515 593 41,000 50 Climbing Boston Center
Mon 11:03:32 PM 42.4992 -70.9533 51° Northeast 515 593 41,000  Level Boston Center
Mon 11:04:32 PM 42.5867 -70.7989 52° Northeast 515 593 41,000  Level Boston Center
Mon 11:05:32 PM 42.6800 -70.6439 51° Northeast 525 604 41,000 -50 Level Boston Center
Mon 11:06:32 PM 42.7692 -70.4914 51° Northeast 520 598 40,900  Descending Boston Center
Mon 11:07:32 PM 42.8583 -70.3356 52° Northeast 515 593 41,000 50 Climbing Boston Center
Mon 11:08:32 PM 42.9469 -70.1822 52° Northeast 521 600 41,000  Level Boston Center
Mon 11:09:32 PM 43.0356 -70.0256 52° Northeast 521 600 41,000  Level Boston Center
Mon 11:10:32 PM 43.1197 -69.8714 53° Northeast 516 594 41,000  Level Boston Center
Mon 11:11:32 PM 43.1897 -69.7461 53° Northeast 516 594 41,000  Level Boston Center
Mon 11:12:32 PM 43.2997 -69.5586 51° Northeast 521 600 41,000  Level Boston Center
Mon 11:13:32 PM 43.3853 -69.4003 53° Northeast 521 600 41,000  Level Boston Center
Mon 11:14:32 PM 43.4750 -69.2469 51° Northeast 516 594 41,000  Level Boston Center
Mon 11:15:32 PM 43.5622 -69.0875 53° Northeast 516 594 41,000  Level Boston Center
Mon 11:16:32 PM 43.6472 -68.9364 52° Northeast 521 600 41,000  Level Boston Center
Mon 11:17:32 PM 43.7339 -68.7761 53° Northeast 515 593 41,000  Level Boston Center
Mon 11:18:32 PM 43.8225 -68.6153 53° Northeast 515 593 41,000  Level Boston Center
Mon 11:19:32 PM 43.9108 -68.4539 53° Northeast 520 598 41,000  Level Boston Center
Mon 11:20:32 PM 43.9969 -68.2953 53° Northeast 520 598 41,000  Level Boston Center
Mon 11:21:32 PM 44.0847 -68.1300 53° Northeast 520 598 41,000  Level Boston Center
Mon 11:22:32 PM 44.1703 -67.9703 53° Northeast 520 598 41,000  Level Boston Center
Mon 11:23:32 PM 44.2578 -67.8100 53° Northeast 520 598 41,000  Level Boston Center
Mon 11:24:32 PM 44.3428 -67.6464 54° Northeast 520 598 41,000  Level Boston Center
Mon 11:25:05 PM 44.3833 -67.5500 59° Northeast 530 610 41,000  Level Moncton Center
Mon 11:26:05 PM 44.4667 -67.3667 57° Northeast 530 610 41,000  Level Moncton Center
Mon 11:27:05 PM 44.5500 -67.2167 52° Northeast 530 610 41,000  Level Moncton Center
Mon 11:28:05 PM 44.6333 -67.0500 55° Northeast 530 610 41,000  Level Moncton Center
Mon 11:29:05 PM 44.7333 -66.9000 47° Northeast 530 610 41,000  Level Moncton Center
Mon 11:30:05 PM 44.8167 -66.7000 60° Northeast 530 610 41,000  Level Moncton Center
Mon 11:31:05 PM 44.9000 -66.5500 52° Northeast 540 621 41,000  Level Moncton Center
Mon 11:32:05 PM 44.9833 -66.3667 57° Northeast 540 621 41,000  Level Moncton Center
Mon 11:33:05 PM 45.0833 -66.2000 50° Northeast 530 610 41,000  Level Moncton Center
Mon 11:34:05 PM 45.1667 -66.0333 55° Northeast 540 621 41,000  Level Moncton Center
Mon 11:35:05 PM 45.2500 -65.8500 57° Northeast 540 621 41,000  Level Moncton Center
Mon 11:36:05 PM 45.3333 -65.6833 55° Northeast 540 621 41,000  Level Moncton Center
Mon 11:37:05 PM 45.4167 -65.5000 57° Northeast 540 621 41,000  Level Moncton Center
Mon 11:38:05 PM 45.5000 -65.3333 54° Northeast 540 621 41,000 50 Level Moncton Center
Mon 11:39:05 PM 45.5833 -65.1667 54° Northeast 520 598 41,100 300 Climbing Moncton Center
Mon 11:40:05 PM 45.6667 -64.9667 59° Northeast 520 598 41,600 500 Climbing Moncton Center
Mon 11:41:05 PM 45.7500 -64.8000 54° Northeast 520 598 42,100 500 Climbing Moncton Center
Mon 11:42:05 PM 45.8500 -64.6167 52° Northeast 540 621 42,600 450 Climbing Moncton Center
Mon 11:43:05 PM 45.9167 -64.4667 57° Northeast 520 598 43,000 500 Climbing Moncton Center
Mon 11:44:05 PM 46.0167 -64.2833 52° Northeast 520 598 43,600 500 Climbing Moncton Center
Mon 11:45:05 PM 46.0833 -64.1000 62° Northeast 520 598 44,000 500 Climbing Moncton Center
Mon 11:46:05 PM 46.1667 -63.9333 54° Northeast 510 587 44,600 500 Climbing Moncton Center
Mon 11:47:05 PM 46.2500 -63.7667 54° Northeast 510 587 45,000 200 Climbing Moncton Center
Mon 11:48:05 PM 46.3167 -63.6000 60° Northeast 510 587 45,000  Level Moncton Center
Mon 11:49:05 PM 46.3833 -63.4333 60° Northeast 510 587 45,000  Level Moncton Center
Mon 11:50:05 PM 46.4667 -63.2500 57° Northeast 510 587 45,000  Level Moncton Center
Mon 11:51:05 PM 46.5500 -63.0833 54° Northeast 510 587 45,000  Level Moncton Center
Mon 11:52:05 PM 46.6333 -62.9167 54° Northeast 510 587 45,000  Level Moncton Center
Mon 11:52:51 PM 46.6833 -62.7833 61° Northeast 520 598 45,000  Level Gander Center
Mon 11:53:51 PM 46.7667 -62.6000 56° Northeast 520 598 45,000  Level Gander Center
Mon 11:54:51 PM 46.8333 -62.4333 60° Northeast 520 598 45,000  Level Gander Center
Mon 11:55:51 PM 46.9167 -62.2333 59° Northeast 520 598 45,000  Level Gander Center
Mon 11:56:51 PM 47.0000 -62.0667 54° Northeast 520 598 45,000  Level Gander Center
Mon 11:57:51 PM 47.0833 -61.8667 58° Northeast 520 598 45,000  Level Gander Center
Mon 11:58:51 PM 47.1667 -61.7000 54° Northeast 520 598 45,000  Level Gander Center
Mon 11:59:51 PM 47.2500 -61.5000 58° Northeast 520 598 45,000  Level Gander Center
Tue 12:00:51 AM 47.3167 -61.3333 59° Northeast 530 610 45,000  Level Gander Center
Tue 12:01:51 AM 47.4000 -61.1667 54° Northeast 530 610 45,000  Level Gander Center
Tue 12:02:51 AM 47.4667 -60.9667 64° Northeast 530 610 45,000  Level Gander Center
Tue 12:03:51 AM 47.5500 -60.7833 56° Northeast 530 610 45,000  Level Gander Center
Tue 12:04:51 AM 47.6333 -60.5833 58° Northeast 530 610 45,000  Level Gander Center
Tue 12:05:51 AM 47.7167 -60.3833 58° Northeast 530 610 45,000  Level Gander Center
Tue 12:06:51 AM 47.7667 -60.2167 66° East 540 621 45,000  Level Gander Center
Tue 12:07:51 AM 47.8500 -60.0167 58° Northeast 540 621 45,000  Level Gander Center
Tue 12:08:51 AM 47.9333 -59.8333 56° Northeast 540 621 45,000  Level Gander Center
Tue 12:09:51 AM 48.0000 -59.6333 63° Northeast 540 621 45,000  Level Gander Center
Tue 12:10:51 AM 48.0833 -59.4333 58° Northeast 540 621 45,000  Level Gander Center
Tue 12:11:51 AM 48.1667 -59.2500 56° Northeast 540 621 45,000  Level Gander Center
Tue 12:12:51 AM 48.2500 -59.0500 58° Northeast 540 621 45,000  Level Gander Center
Tue 12:13:51 AM 48.3000 -58.8667 68° East 540 621 45,000  Level Gander Center
Tue 12:14:51 AM 48.3833 -58.6667 58° Northeast 530 610 45,000  Level Gander Center
Tue 12:15:51 AM 48.4500 -58.4833 61° Northeast 540 621 45,000  Level Gander Center
Tue 12:16:51 AM 48.5333 -58.2833 58° Northeast 540 621 45,000  Level Gander Center
Tue 12:17:51 AM 48.6000 -58.0667 65° Northeast 540 621 45,000  Level Gander Center
Tue 12:18:51 AM 48.6833 -57.8833 55° Northeast 540 621 45,000  Level Gander Center
Tue 12:19:51 AM 48.7500 -57.6833 63° Northeast 540 621 45,000  Level Gander Center
Tue 12:20:51 AM 48.8167 -57.4667 65° Northeast 540 621 45,000  Level Gander Center
Tue 12:21:51 AM 48.8833 -57.2667 63° Northeast 540 621 45,000  Level Gander Center
Tue 12:22:51 AM 48.9500 -57.0500 65° Northeast 540 621 45,000  Level Gander Center
Tue 12:23:51 AM 49.0167 -56.8667 61° Northeast 540 621 45,000  Level Gander Center
Tue 12:24:51 AM 49.0833 -56.6667 63° Northeast 540 621 45,000  Level Gander Center
Tue 12:25:51 AM 49.1500 -56.4500 65° Northeast 540 621 45,000  Level Gander Center
Tue 12:26:51 AM 49.2167 -56.2333 65° Northeast 550 633 45,000  Level Gander Center
Tue 12:27:51 AM 49.2833 -56.0333 63° Northeast 540 621 45,000  Level Gander Center
Tue 12:28:51 AM 49.3500 -55.8167 65° Northeast 550 633 45,000  Level Gander Center
Tue 12:29:51 AM 49.4167 -55.6333 61° Northeast 550 633 45,000  Level Gander Center
Tue 12:30:51 AM 49.4833 -55.4167 65° Northeast 550 633 45,000  Level Gander Center
Tue 12:31:51 AM 49.5500 -55.2000 65° Northeast 550 633 45,000  Level Gander Center
Tue 12:32:51 AM 49.6167 -54.9833 65° Northeast 550 633 45,000  Level Gander Center
Tue 12:33:51 AM 49.6833 -54.7333 68° East 550 633 45,000  Level Gander Center
Tue 12:34:51 AM 49.7333 -54.5500 67° East 550 633 45,000  Level Gander Center
Tue 12:35:51 AM 49.8000 -54.3000 67° East 550 633 45,000  Level Gander Center
Tue 12:36:51 AM 49.8833 -54.1167 55° Northeast 550 633 45,000  Level Gander Center
Tue 12:37:51 AM 49.9333 -53.8667 73° East 550 633 45,000  Level Gander Center
Tue 12:38:51 AM 50.0000 -53.6833 60° Northeast 560 644 45,000  Level Gander Center
Tue 12:39:51 AM 50.0500 -53.4667 70° East 560 644 45,000  Level Gander Center
Tue 12:40:51 AM 50.1167 -53.2167 67° East 560 644 45,000  Level Gander Center
Tue 12:41:51 AM 50.1833 -53.0167 62° Northeast 560 644 45,000  Level Gander Center
Tue 12:42:51 AM 50.2333 -52.7667 73° East 560 644 45,000  Level Gander Center
Tue 12:43:51 AM 50.3000 -52.5500 64° Northeast 560 644 45,000  Level Gander Center
Tue 12:44:51 AM 50.3667 -52.3333 64° Northeast 560 644 45,000  Level Gander Center
Tue 12:45:51 AM 50.4167 -52.1000 71° East 560 644 45,000  Level Gander Center
Tue 12:46:51 AM 50.4833 -51.8833 64° Northeast 560 644 45,000  Level Gander Center
Tue 12:47:51 AM 50.5500 -51.6500 66° East 560 644 45,000  Level Gander Center
Tue 12:48:51 AM 50.6000 -51.4333 70° East 550 633 45,000  Level Gander Center
Tue 12:49:51 AM 50.6667 -51.2167 64° Northeast 550 633 45,000  Level Gander Center
Tue 12:50:51 AM 50.7167 -50.9833 71° East 550 633 45,000  Level Gander Center
Tue 12:51:51 AM 50.7833 -50.7667 64° Northeast 550 633 45,000  Level Gander Center
Tue 12:52:51 AM 50.8500 -50.5500 64° Northeast 550 633 45,000  Level Gander Center
Tue 12:53:51 AM 50.8833 -50.3000 78° East 550 633 45,000  Level Gander Center
Tue 12:54:51 AM 50.9500 -50.1000 62° Northeast 540 621 45,000  Level Gander Center
Tue 12:55:00 AM 51.0000 -50.0000 77° East 527 606 45,000  Level ETMS Enhanced Traffic Management System
Tue 12:55:51 AM 51.0000 -49.8833 77° East 540 621 45,000  Level Gander Center
Tue 12:56:51 AM 51.0333 -49.6333 78° East 550 633 45,000  Level Gander Center
Tue 12:57:51 AM 51.0667 -49.4000 77° East 550 633 45,000  Level Gander Center
Tue 12:58:51 AM 51.1000 -49.1500 78° East 560 644 45,000  Level Gander Center
Tue 12:59:51 AM 51.1167 -48.9333 83° East 550 633 45,000  Level Gander Center
Tue 01:01:00 AM 51.1500 -48.6922 77° East  Level FlightAware Approximate
Tue 01:08:00 AM 51.3534 -47.1260 78° East  Level FlightAware Approximate
Tue 01:09:00 AM 51.3808 -46.9012 79° East  Level FlightAware Approximate
Tue 01:10:00 AM 51.4077 -46.6761 79° East  Level FlightAware Approximate
Tue 01:11:00 AM 51.4342 -46.4507 79° East  Level FlightAware Approximate
Tue 01:12:00 AM 51.4602 -46.2251 79° East  Level FlightAware Approximate
Tue 01:13:00 AM 51.4858 -45.9992 80° East  Level FlightAware Approximate
Tue 01:14:00 AM 51.5110 -45.7730 80° East  Level FlightAware Approximate
Tue 01:15:00 AM 51.5358 -45.5466 80° East  Level FlightAware Approximate
Tue 01:16:00 AM 51.5601 -45.3200 80° East  Level FlightAware Approximate
Tue 01:17:00 AM 51.5839 -45.0931 80° East  Level FlightAware Approximate
Tue 01:18:00 AM 51.6074 -44.8660 80° East  Level FlightAware Approximate
Tue 01:19:00 AM 51.6304 -44.6387 81° East  Level FlightAware Approximate
Tue 01:20:00 AM 51.6529 -44.4111 81° East  Level FlightAware Approximate
Tue 01:21:00 AM 51.6750 -44.1833 81° East  Level FlightAware Approximate
Tue 01:22:00 AM 51.6967 -43.9553 81° East  Level FlightAware Approximate
Tue 01:23:00 AM 51.7180 -43.7271 81° East  Level FlightAware Approximate
Tue 01:24:00 AM 51.7388 -43.4986 82° East  Level FlightAware Approximate
Tue 01:25:00 AM 51.7591 -43.2700 82° East  Level FlightAware Approximate
Tue 01:26:00 AM 51.7790 -43.0411 82° East  Level FlightAware Approximate
Tue 01:27:00 AM 51.7985 -42.8120 82° East  Level FlightAware Approximate
Tue 01:28:00 AM 51.8175 -42.5828 82° East  Level FlightAware Approximate
Tue 01:29:00 AM 51.8360 -42.3534 82° East  Level FlightAware Approximate
Tue 01:30:00 AM 51.8542 -42.1237 83° East  Level FlightAware Approximate
Tue 01:31:00 AM 51.8718 -41.8939 83° East  Level FlightAware Approximate
Tue 01:32:00 AM 51.8891 -41.6639 83° East  Level FlightAware Approximate
Tue 01:33:00 AM 51.9058 -41.4338 83° East  Level FlightAware Approximate
Tue 01:34:00 AM 51.9222 -41.2034 83° East  Level FlightAware Approximate
Tue 01:35:00 AM 51.9380 -40.9729 84° East  Level FlightAware Approximate
Tue 01:36:00 AM 51.9535 -40.7423 84° East  Level FlightAware Approximate
Tue 01:37:00 AM 51.9685 -40.5114 84° East  Level FlightAware Approximate
Tue 01:38:00 AM 51.9830 -40.2805 84° East  Level FlightAware Approximate
Tue 01:38:00 AM 52.0000 -40.0000 86° East 540 621 45,000  Level ETMS Enhanced Traffic Management System
Tue 01:39:00 AM 51.9971 -40.0494 84° East  Level FlightAware Approximate
Tue 01:40:00 AM 52.0076 -39.8178 86° East  Level FlightAware Approximate
Tue 01:41:00 AM 52.0168 -39.5859 86° East  Level FlightAware Approximate
Tue 01:42:00 AM 52.0256 -39.3540 86° East  Level FlightAware Approximate
Tue 01:43:00 AM 52.0340 -39.1219 87° East  Level FlightAware Approximate
Tue 01:44:00 AM 52.0665 -38.0518 88° East 540 621 45,000  Level FlightAware Transoceanic
Tue 01:45:00 AM 52.0726 -37.8079 88° East 540 621 45,000  Level FlightAware Transoceanic
Tue 01:46:00 AM 52.0781 -37.5640 88° East 540 621 45,000  Level FlightAware Transoceanic
Tue 01:47:00 AM 52.0831 -37.3200 88° East 540 621 45,000  Level FlightAware Transoceanic
Tue 01:48:00 AM 52.0877 -37.0759 88° East 540 621 45,000  Level FlightAware Transoceanic
Tue 01:49:00 AM 52.0917 -36.8318 89° East 540 621 45,000  Level FlightAware Transoceanic
Tue 01:50:00 AM 52.0953 -36.5876 89° East 540 621 45,000  Level FlightAware Transoceanic
Tue 01:51:00 AM 52.0983 -36.3434 89° East 540 621 45,000  Level FlightAware Transoceanic
Tue 01:52:00 AM 52.1008 -36.0992 89° East 540 621 45,000  Level FlightAware Transoceanic
Tue 01:53:00 AM 52.1028 -35.8550 89° East 540 621 45,000  Level FlightAware Transoceanic
Tue 01:54:00 AM 52.1044 -35.6107 90° East 540 621 45,000  Level FlightAware Transoceanic
Tue 01:55:00 AM 52.1054 -35.3664 90° East 540 621 45,000  Level FlightAware Transoceanic
Tue 01:56:00 AM 52.1059 -35.1221 90° East 540 621 45,000  Level FlightAware Transoceanic
Tue 01:57:00 AM 52.1059 -34.8779 90° East 540 621 45,000  Level FlightAware Transoceanic
Tue 01:58:00 AM 52.1054 -34.6336 90° East 540 621 45,000  Level FlightAware Transoceanic
Tue 01:59:00 AM 52.1044 -34.3893 90° East 540 621 45,000  Level FlightAware Transoceanic
Tue 02:00:00 AM 52.1028 -34.1450 91° East 540 621 45,000  Level FlightAware Transoceanic
Tue 02:01:00 AM 52.1008 -33.9008 91° East 540 621 45,000  Level FlightAware Transoceanic
Tue 02:02:00 AM 52.0983 -33.6566 91° East 540 621 45,000  Level FlightAware Transoceanic
Tue 02:03:00 AM 52.0953 -33.4124 91° East 540 621 45,000  Level FlightAware Transoceanic
Tue 02:04:00 AM 52.0917 -33.1682 91° East 540 621 45,000  Level FlightAware Transoceanic
Tue 02:05:00 AM 52.0877 -32.9241 92° East 540 621 45,000  Level FlightAware Transoceanic
Tue 02:06:00 AM 52.0831 -32.6800 92° East 540 621 45,000  Level FlightAware Transoceanic
Tue 02:07:00 AM 52.0781 -32.4360 92° East 540 621 45,000  Level FlightAware Transoceanic
Tue 02:08:00 AM 52.0726 -32.1921 92° East 540 621 45,000  Level FlightAware Transoceanic
Tue 02:09:00 AM 52.0665 -31.9482 92° East 540 621 45,000  Level FlightAware Transoceanic
Tue 02:10:00 AM 52.0600 -31.7044 93° East 540 621 45,000  Level FlightAware Transoceanic
Tue 02:11:00 AM 52.0529 -31.4606 93° East 540 621 45,000  Level FlightAware Transoceanic
Tue 02:12:00 AM 52.0453 -31.2169 93° East 540 621 45,000  Level FlightAware Transoceanic
Tue 02:13:00 AM 52.0373 -30.9734 93° East 540 621 45,000  Level FlightAware Transoceanic
Tue 02:14:00 AM 52.0287 -30.7299 93° East 540 621 45,000  Level FlightAware Transoceanic
Tue 02:15:00 AM 52.0196 -30.4865 94° East 540 621 45,000  Level FlightAware Transoceanic
Tue 02:16:00 AM 52.0101 -30.2432 94° East 540 621 45,000  Level FlightAware Transoceanic
Tue 02:17:00 AM 52.0005 -30.0114 94° East  Level FlightAware Approximate
Tue 02:18:00 AM 51.9905 -29.7797 94° East  Level FlightAware Approximate
Tue 02:19:00 AM 52.0076 -29.7909 87° East  Level FlightAware Approximate
Tue 02:19:00 AM 52.0000 -30.0000 86° East 553 636 45,000  Level ETMS Enhanced Traffic Management System
Tue 02:20:00 AM 52.0156 -29.5589 87° East  Level FlightAware Approximate
Tue 02:21:00 AM 52.0232 -29.3268 87° East  Level FlightAware Approximate
Tue 02:22:00 AM 52.0303 -29.0947 87° East  Level FlightAware Approximate
Tue 02:23:00 AM 52.0369 -28.8624 87° East  Level FlightAware Approximate
Tue 02:24:00 AM 52.0431 -28.6301 87° East  Level FlightAware Approximate
Tue 02:25:00 AM 52.0678 -28.0030 88° East 553 636 45,000  Level FlightAware Transoceanic
Tue 02:26:00 AM 52.0738 -27.7530 88° East 553 636 45,000  Level FlightAware Transoceanic
Tue 02:27:00 AM 52.0794 -27.5030 88° East 553 636 45,000  Level FlightAware Transoceanic
Tue 02:28:00 AM 52.0844 -27.2528 88° East 553 636 45,000  Level FlightAware Transoceanic
Tue 02:29:00 AM 52.0890 -27.0027 88° East 553 636 45,000  Level FlightAware Transoceanic
Tue 02:30:00 AM 52.0929 -26.7524 89° East 553 636 45,000  Level FlightAware Transoceanic
Tue 02:31:00 AM 52.0964 -26.5022 89° East 553 636 45,000  Level FlightAware Transoceanic
Tue 02:32:00 AM 52.0993 -26.2519 89° East 553 636 45,000  Level FlightAware Transoceanic
Tue 02:33:00 AM 52.1017 -26.0015 89° East 553 636 45,000  Level FlightAware Transoceanic
Tue 02:34:00 AM 52.1035 -25.7512 89° East 553 636 45,000  Level FlightAware Transoceanic
Tue 02:35:00 AM 52.1049 -25.5008 90° East 553 636 45,000  Level FlightAware Transoceanic
Tue 02:36:00 AM 52.1057 -25.2504 90° East 553 636 45,000  Level FlightAware Transoceanic
Tue 02:37:00 AM 52.1059 -25.0000 90° East 553 636 45,000  Level FlightAware Transoceanic
Tue 02:38:00 AM 52.1057 -24.7496 90° East 553 636 45,000  Level FlightAware Transoceanic
Tue 02:39:00 AM 52.1049 -24.4992 90° East 553 636 45,000  Level FlightAware Transoceanic
Tue 02:40:00 AM 52.1035 -24.2488 91° East 553 636 45,000  Level FlightAware Transoceanic
Tue 02:41:00 AM 52.1017 -23.9985 91° East 553 636 45,000  Level FlightAware Transoceanic
Tue 02:42:00 AM 52.0993 -23.7481 91° East 553 636 45,000  Level FlightAware Transoceanic
Tue 02:43:00 AM 52.0964 -23.4978 91° East 553 636 45,000  Level FlightAware Transoceanic
Tue 02:44:00 AM 52.0929 -23.2476 91° East 553 636 45,000  Level FlightAware Transoceanic
Tue 02:45:00 AM 52.0890 -22.9973 92° East 553 636 45,000  Level FlightAware Transoceanic
Tue 02:46:00 AM 52.0844 -22.7472 92° East 553 636 45,000  Level FlightAware Transoceanic
Tue 02:47:00 AM 52.0794 -22.4970 92° East 553 636 45,000  Level FlightAware Transoceanic
Tue 02:48:00 AM 52.0738 -22.2470 92° East 553 636 45,000  Level FlightAware Transoceanic
Tue 02:49:00 AM 52.0678 -21.9970 92° East 553 636 45,000  Level FlightAware Transoceanic
Tue 02:50:00 AM 52.0611 -21.7470 93° East 553 636 45,000  Level FlightAware Transoceanic
Tue 02:51:00 AM 52.0540 -21.4972 93° East 553 636 45,000  Level FlightAware Transoceanic
Tue 02:52:00 AM 52.0463 -21.2474 93° East 553 636 45,000  Level FlightAware Transoceanic
Tue 02:53:00 AM 52.0381 -20.9977 93° East 553 636 45,000  Level FlightAware Transoceanic
Tue 02:54:00 AM 52.0294 -20.7481 93° East 553 636 45,000  Level FlightAware Transoceanic
Tue 02:55:00 AM 52.0201 -20.4986 94° East 553 636 45,000  Level FlightAware Transoceanic
Tue 02:56:00 AM 52.0103 -20.2493 94° East 553 636 45,000  Level FlightAware Transoceanic
Tue 02:57:00 AM 52.0007 -20.0175 94° East  Level FlightAware Approximate
Tue 02:58:00 AM 51.9907 -19.7858 94° East  Level FlightAware Approximate
Tue 02:59:00 AM 52.0073 -19.8030 86° East  Level FlightAware Approximate
Tue 03:00:00 AM 52.0155 -19.5711 87° East  Level FlightAware Approximate
Tue 03:01:00 AM 52.0232 -19.3390 87° East  Level FlightAware Approximate
Tue 03:02:00 AM 52.0304 -19.1069 87° East  Level FlightAware Approximate
Tue 03:03:00 AM 52.0373 -18.8747 87° East  Level FlightAware Approximate
Tue 03:04:00 AM 52.0436 -18.6424 87° East  Level FlightAware Approximate
Tue 03:05:00 AM 52.0495 -18.4100 88° East  Level FlightAware Approximate
Tue 03:06:00 AM 52.0549 -18.1776 88° East  Level FlightAware Approximate
Tue 03:07:00 AM 52.0599 -17.9452 88° East  Level FlightAware Approximate
Tue 03:08:00 AM 52.0644 -17.7127 88° East  Level FlightAware Approximate
Tue 03:09:00 AM 52.0685 -17.4801 88° East  Level FlightAware Approximate
Tue 03:10:00 AM 52.0721 -17.2475 88° East  Level FlightAware Approximate
Tue 03:11:00 AM 52.0752 -17.0149 89° East  Level FlightAware Approximate
Tue 03:12:00 AM 52.0779 -16.7823 89° East  Level FlightAware Approximate
Tue 03:13:00 AM 52.0802 -16.5496 89° East  Level FlightAware Approximate
Tue 03:14:00 AM 52.0819 -16.3169 89° East  Level FlightAware Approximate
Tue 03:15:00 AM 52.0832 -16.0842 89° East  Level FlightAware Approximate
Tue 03:16:00 AM 52.0841 -15.8514 90° East  Level FlightAware Approximate
Tue 03:17:00 AM 52.0845 -15.6187 90° East  Level FlightAware Approximate
Tue 03:18:00 AM 52.0844 -15.3860 90° East  Level FlightAware Approximate
Tue 03:19:00 AM 52.0839 -15.1532 90° East  Level FlightAware Approximate
Tue 03:20:00 AM 52.0832 -14.9205 90° East  Level FlightAware Approximate
Tue 03:21:00 AM 52.0824 -14.6878 90° East  Level FlightAware Approximate
Tue 03:22:00 AM 52.0812 -14.4551 90° East  Level FlightAware Approximate
Tue 03:23:00 AM 52.0795 -14.2224 91° East  Level FlightAware Approximate
Tue 03:24:00 AM 52.0773 -13.9897 91° East  Level FlightAware Approximate
Tue 03:25:00 AM 52.0747 -13.7570 91° East  Level FlightAware Approximate
Tue 03:26:00 AM 52.0716 -13.5244 91° East  Level FlightAware Approximate
Tue 03:27:00 AM 52.0681 -13.2918 91° East  Level FlightAware Approximate
Tue 03:28:00 AM 52.0641 -13.0593 92° East  Level FlightAware Approximate
Tue 03:29:00 AM 52.0597 -12.8268 92° East  Level FlightAware Approximate
Tue 03:30:00 AM 52.0548 -12.5943 92° East  Level FlightAware Approximate
Tue 03:31:00 AM 52.0494 -12.3619 92° East  Level FlightAware Approximate
Tue 03:32:00 AM 52.0436 -12.1296 92° East  Level FlightAware Approximate
Tue 03:33:00 AM 52.0374 -11.8973 92° East  Level FlightAware Approximate
Tue 03:34:00 AM 52.0306 -11.6651 93° East  Level FlightAware Approximate
Tue 03:35:00 AM 52.0235 -11.4329 93° East  Level FlightAware Approximate
Tue 03:36:00 AM 52.0158 -11.2008 93° East  Level FlightAware Approximate
Tue 03:37:00 AM 52.0077 -10.9689 93° East  Level FlightAware Approximate
Tue 03:38:00 AM 51.9992 -10.7370 93° East  Level FlightAware Approximate
Tue 03:39:00 AM 51.9902 -10.5051 94° East  Level FlightAware Approximate
Tue 03:40:00 AM 51.9807 -10.2734 94° East  Level FlightAware Approximate
Tue 03:41:00 AM 51.9708 -10.0418 94° East  Level FlightAware Approximate
Tue 03:42:00 AM 51.9604 -9.8103 94° East  Level FlightAware Approximate
Tue 03:43:00 AM 51.9496 -9.5789 94° East  Level FlightAware Approximate
Tue 03:44:00 AM 51.9384 -9.3476 94° East  Level FlightAware Approximate
Tue 03:45:00 AM 51.9266 -9.1165 95° East  Level FlightAware Approximate
Tue 03:46:00 AM 51.9144 -8.8854 95° East  Level FlightAware Approximate
Tue 03:47:00 AM 51.9018 -8.6545 95° East  Level FlightAware Approximate
Tue 03:48:00 AM 51.8887 -8.4237 95° East  Level FlightAware Approximate
Tue 03:49:00 AM 51.8752 -8.1931 95° East  Level FlightAware Approximate
Tue 03:50:00 AM 51.8612 -7.9626 96° East  Level FlightAware Approximate
Tue 03:51:00 AM 51.8468 -7.7322 96° East  Level FlightAware Approximate
Tue 03:52:00 AM 51.8319 -7.5020 96° East  Level FlightAware Approximate
Tue 03:53:00 AM 51.8166 -7.2719 96° East  Level FlightAware Approximate
Tue 03:54:00 AM 51.8008 -7.0420 96° East  Level FlightAware Approximate
Tue 03:55:00 AM 51.7845 -6.8123 96° East  Level FlightAware Approximate
Tue 03:56:00 AM 51.7678 -6.5827 97° East  Level FlightAware Approximate
Tue 03:57:00 AM 51.7582 -6.3522 94° East  Level FlightAware Approximate
Tue 03:58:00 AM 51.7487 -6.1217 94° East  Level FlightAware Approximate
Tue 03:59:00 AM 51.7387 -5.8913 94° East  Level FlightAware Approximate
Tue 04:00:00 AM 51.7282 -5.6610 94° East  Level FlightAware Approximate
Tue 04:01:00 AM 51.7173 -5.4308 94° East  Level FlightAware Approximate
Tue 04:02:00 AM 51.7060 -5.2007 94° East  Level FlightAware Approximate
Tue 04:03:00 AM 51.6942 -4.9707 95° East  Level FlightAware Approximate
Tue 04:04:00 AM 51.6820 -4.7409 95° East  Level FlightAware Approximate
Tue 04:05:00 AM 51.6693 -4.5111 95° East  Level FlightAware Approximate
Tue 04:06:00 AM 51.6562 -4.2816 95° East  Level FlightAware Approximate
Tue 04:07:00 AM 51.6426 -4.0521 95° East  Level FlightAware Approximate
Tue 04:08:00 AM 51.6333 -3.8224 90° East  Level FlightAware Approximate
Tue 04:09:00 AM 51.6263 -3.5931 101° East  Level FlightAware Approximate
Tue 04:10:00 AM 51.6000 -3.3670 90° East  Level FlightAware Approximate
Tue 04:11:00 AM 51.5872 -3.1384 99° East  Level FlightAware Approximate
Tue 04:12:00 AM 51.5500 -2.9165 90° East  Level FlightAware Approximate
Tue 04:13:00 AM 51.5226 -2.6916 103° East  Level FlightAware Approximate
Tue 04:14:00 AM 51.4869 -2.4694 102° East  Level FlightAware Approximate
Tue 04:15:00 AM 51.4562 -2.2451 102° East  Level FlightAware Approximate
Tue 04:16:00 AM 51.4357 -2.0190 101° East  Level FlightAware Approximate
Tue 04:17:00 AM 51.4031 -1.7957 103° East  Level FlightAware Approximate
Tue 04:18:00 AM 51.3698 -1.5729 103° East  Level FlightAware Approximate
Tue 04:19:00 AM 51.3359 -1.3504 104° East  Level FlightAware Approximate
Tue 04:20:00 AM 51.3173 -1.1437 40° Northeast  Level FlightAware Approximate
Tue 04:21:00 AM 51.4269 -0.9965 41° Northeast  Level FlightAware Approximate
Tue 04:22:00 AM 51.5347 -0.8460 62° Northeast  Level FlightAware Approximate
Tue 04:23:00 AM 51.6374 -0.6909 38° Northeast  Level FlightAware Approximate
Tue 04:24:00 AM 51.7443 -0.5390 32° Northeast  Level FlightAware Approximate
Tue 04:25:00 AM 51.8511 -0.3862 38° Northeast  Level FlightAware Approximate
Tue 04:26:00 AM 51.8667 -0.3667 38° Northeast  Level FlightAware Approximate
Tue 04:27:00 AM 51.8747 -0.3683 38° Northeast  Level Estimated
Tue 04:28:00 AM 51.8747 -0.3683 38° Northeast  Level Estimated
Tue 04:29:00 AM 51.8747 -0.3683 38° Northeast  Level Estimated
Tue 04:30:00 AM 51.8747 -0.3683 38° Northeast  Level Estimated
Tue 04:31:00 AM 51.8747 -0.3683 38° Northeast  Level Estimated
Tue 04:32:00 AM 51.8747 -0.3683 38° Northeast  Level Estimated
Tue 04:33:00 AM 51.8747 -0.3683 38° Northeast  Level Estimated
Tue 04:34:00 AM 51.8747 -0.3683 38° Northeast  Level Estimated
Tue 04:35:00 AM 51.8747 -0.3683 38° Northeast  Level Estimated
Tue 04:36:00 AM 51.8747 -0.3683 38° Northeast  Level Estimated
Tue 04:37:00 AM 51.8747 -0.3683 38° Northeast  Level Estimated
Tue 04:38:00 AM 51.8747 -0.3683 38° Northeast  Level Estimated
Tue 04:39:00 AM 51.8747 -0.3683 38° Northeast  Level Estimated
Tue 04:40:00 AM 51.8747 -0.3683 38° Northeast  Level Estimated
Tue 04:41:00 AM 51.8747 -0.3683 38° Northeast  Level Estimated
Tue 04:42:00 AM 51.8747 -0.3683 38° Northeast  Level Estimated
Tue 04:43:00 AM 51.8747 -0.3683 38° Northeast  Level Estimated
Tue 04:44:00 AM 51.8747 -0.3683 38° Northeast  Level Estimated
Tue 04:45:00 AM 51.8747 -0.3683 38° Northeast  Level Estimated
Tue 04:46:00 AM 51.8747 -0.3683 38° Northeast  Level Estimated
Tue 04:47:00 AM 51.8747 -0.3683 38° Northeast  Level Estimated
Tue 04:48:00 AM 51.8747 -0.3683 38° Northeast  Level Estimated
Tue 04:49:00 AM 51.8747 -0.3683 38° Northeast  Level Estimated
Tue 04:50:00 AM 51.8747 -0.3683 38° Northeast  Level Estimated

Login

Don't have an account? Register now (free) for customized features, flight alerts, and more!